createdAt,value
2022-10-19T00:01:24.021Z,78.28
2022-10-19T00:04:27.060Z,78.79
2022-10-19T00:07:30.816Z,78.35
2022-10-19T00:10:33.963Z,77.37
2022-10-19T00:13:36.777Z,78.42
2022-10-19T00:16:40.241Z,77.99
2022-10-19T00:19:42.934Z,78.02
2022-10-19T00:22:45.894Z,77.08
2022-10-19T00:25:56.264Z,76.68
2022-10-19T00:28:59.290Z,76.97
2022-10-19T00:32:02.050Z,77.37
2022-10-19T00:35:05.255Z,77.29
2022-10-19T00:38:07.946Z,78.12
2022-10-19T00:41:10.833Z,78.30
2022-10-19T00:44:13.336Z,77.97
2022-10-19T00:47:19.065Z,77.95
2022-10-19T00:50:21.901Z,77.69
2022-10-19T00:53:27.351Z,77.78
2022-10-19T00:56:30.197Z,79.68
2022-10-19T00:59:35.038Z,79.28
2022-10-19T01:02:38.008Z,78.53
2022-10-19T01:05:41.692Z,78.41
2022-10-19T01:08:46.205Z,77.61
2022-10-19T01:12:09.761Z,77.79
2022-10-19T01:15:15.408Z,77.25
2022-10-19T01:18:30.188Z,77.54
2022-10-19T01:21:45.750Z,77.64
2022-10-19T01:25:09.160Z,78.74
2022-10-19T01:28:19.701Z,78.78
2022-10-19T01:31:32.019Z,78.43
2022-10-19T01:34:40.573Z,77.94
2022-10-19T01:37:51.845Z,78.13
2022-10-19T01:41:17.973Z,79.82
2022-10-19T01:44:33.388Z,79.26
2022-10-19T01:47:49.995Z,78.96
2022-10-19T01:50:55.136Z,78.24
2022-10-19T01:54:01.473Z,77.93
2022-10-19T01:57:07.890Z,77.86
2022-10-19T02:00:13.526Z,78.37
2022-10-19T02:03:18.648Z,77.79
2022-10-19T02:06:22.343Z,77.30
2022-10-19T02:09:25.046Z,77.65
2022-10-19T02:12:31.834Z,77.06
2022-10-19T02:15:39.717Z,78.12
2022-10-19T02:18:49.380Z,78.34
2022-10-19T02:21:52.626Z,77.59
2022-10-19T02:24:55.551Z,76.45
2022-10-19T02:27:58.515Z,77.32
2022-10-19T02:31:01.994Z,77.17
2022-10-19T02:34:07.739Z,77.01
2022-10-19T02:37:10.982Z,77.77
2022-10-19T02:40:13.724Z,77.38
2022-10-19T02:43:19.534Z,76.55
2022-10-19T02:47:04.006Z,76.33
2022-10-19T02:50:08.786Z,77.62
2022-10-19T02:53:11.471Z,77.27
2022-10-19T02:56:16.774Z,77.66
2022-10-19T02:59:19.495Z,76.87
2022-10-19T03:02:22.494Z,76.29
2022-10-19T03:05:25.149Z,76.50
2022-10-19T03:08:28.045Z,75.79
2022-10-19T03:11:31.228Z,75.81
2022-10-19T03:14:35.320Z,76.00
2022-10-19T03:17:37.893Z,75.93
2022-10-19T03:20:40.875Z,76.39
2022-10-19T03:23:43.525Z,76.45
2022-10-19T03:26:46.529Z,76.96
2022-10-19T03:29:49.308Z,76.69
2022-10-19T03:32:54.525Z,76.51
2022-10-19T03:36:28.310Z,76.85
2022-10-19T03:39:31.286Z,76.91
2022-10-19T03:42:33.976Z,77.42
2022-10-19T03:45:36.967Z,78.05
2022-10-19T03:48:39.515Z,79.20
2022-10-19T03:51:42.466Z,79.01
2022-10-19T03:54:45.887Z,79.72
2022-10-19T03:57:48.797Z,80.45
2022-10-19T04:00:52.265Z,79.92
2022-10-19T04:03:57.311Z,81.17
2022-10-19T04:07:00.010Z,81.15
2022-10-19T04:10:03.893Z,81.09
2022-10-19T04:13:06.521Z,81.43
2022-10-19T04:16:13.826Z,82.43
2022-10-19T04:19:17.858Z,81.96
2022-10-19T04:22:20.814Z,80.96
2022-10-19T04:25:24.402Z,82.11
2022-10-19T04:28:28.362Z,82.41
2022-10-19T04:31:31.168Z,83.02
2022-10-19T04:34:36.359Z,82.54
2022-10-19T04:37:41.832Z,82.37
2022-10-19T04:40:44.994Z,82.62
2022-10-19T04:43:48.562Z,82.06
2022-10-19T04:46:51.680Z,82.42
2022-10-19T04:49:54.274Z,82.20
2022-10-19T04:52:57.146Z,82.41
2022-10-19T04:56:00.283Z,83.34
2022-10-19T04:59:03.265Z,83.29
2022-10-19T05:02:05.871Z,83.08
2022-10-19T05:05:09.116Z,83.37
2022-10-19T05:08:11.986Z,83.49
2022-10-19T05:11:15.494Z,83.78
2022-10-19T05:14:20.463Z,83.89
2022-10-19T05:17:24.755Z,83.26
2022-10-19T05:20:27.625Z,83.19
2022-10-19T05:26:38.240Z,84.19
2022-10-19T05:29:42.733Z,85.39
2022-10-19T05:32:46.679Z,85.44
2022-10-19T05:35:49.597Z,86.94
2022-10-19T05:38:53.488Z,88.09
2022-10-19T05:41:56.557Z,87.85
2022-10-19T05:45:00.628Z,89.11
2022-10-19T05:48:03.690Z,90.44
2022-10-19T05:51:11.687Z,89.57
2022-10-19T05:54:15.506Z,88.87
2022-10-19T05:57:18.131Z,88.90
2022-10-19T06:00:21.072Z,89.13
2022-10-19T06:03:25.299Z,89.14
2022-10-19T06:06:28.379Z,88.38
2022-10-19T06:09:36.176Z,88.44
2022-10-19T06:12:38.797Z,88.40
2022-10-19T06:15:41.767Z,88.08
2022-10-19T06:18:45.050Z,88.74
2022-10-19T06:21:50.521Z,87.72
2022-10-19T06:24:53.151Z,89.12
2022-10-19T06:27:57.567Z,89.08
2022-10-19T06:31:00.670Z,88.35
2022-10-19T06:34:04.541Z,88.62
2022-10-19T06:37:08.198Z,88.08
2022-10-19T06:40:11.795Z,88.77
2022-10-19T06:43:14.477Z,88.14
2022-10-19T06:46:23.010Z,88.22
2022-10-19T06:49:25.694Z,87.95
2022-10-19T06:52:28.638Z,88.63
2022-10-19T06:55:31.281Z,88.03
2022-10-19T06:58:38.597Z,87.98
2022-10-19T07:01:41.250Z,87.76
2022-10-19T07:04:44.115Z,87.68
2022-10-19T07:07:46.828Z,87.32
2022-10-19T07:10:54.209Z,87.31
2022-10-19T07:13:56.953Z,86.48
2022-10-19T07:16:59.865Z,85.59
2022-10-19T07:20:05.318Z,85.13
2022-10-19T07:23:08.927Z,84.96
2022-10-19T07:26:17.557Z,84.55
2022-10-19T07:29:20.481Z,84.11
2022-10-19T07:32:23.102Z,83.69
2022-10-19T07:35:26.029Z,83.59
2022-10-19T07:38:30.334Z,83.46
2022-10-19T07:41:34.997Z,83.04
2022-10-19T07:44:37.689Z,82.62
2022-10-19T07:47:40.570Z,82.35
2022-10-19T07:50:48.173Z,81.82
2022-10-19T07:53:51.541Z,81.36
2022-10-19T07:56:54.183Z,80.56
2022-10-19T07:59:57.099Z,79.92
2022-10-19T08:03:43.261Z,79.49
2022-10-19T08:06:24.539Z,78.33
2022-10-19T08:09:51.348Z,77.62
2022-10-19T08:12:50.155Z,77.04
2022-10-19T08:15:52.746Z,76.55
2022-10-19T08:19:01.355Z,74.79
2022-10-19T08:22:03.960Z,74.44
2022-10-19T08:25:07.176Z,73.29
2022-10-19T08:28:09.826Z,72.48
2022-10-19T08:31:19.009Z,71.02
2022-10-19T08:34:21.886Z,69.32
2022-10-19T08:37:40.214Z,68.10
2022-10-19T08:40:47.548Z,62.29
2022-10-19T08:44:03.984Z,57.89
2022-10-19T08:47:23.307Z,53.53
2022-10-19T08:50:33.863Z,51.28
2022-10-19T08:53:56.352Z,48.99
2022-10-19T08:57:02.284Z,46.94
2022-10-19T09:00:36.949Z,44.73
2022-10-19T09:03:55.882Z,43.42
2022-10-19T09:07:07.906Z,42.90
2022-10-19T09:10:14.031Z,40.96
2022-10-19T09:13:18.281Z,40.22
2022-10-19T09:16:23.845Z,40.71
2022-10-19T09:19:31.078Z,40.79
2022-10-19T09:22:35.995Z,39.59
2022-10-19T09:25:39.904Z,39.48
2022-10-19T09:28:51.675Z,39.01
2022-10-19T09:35:30.649Z,37.32
2022-10-19T09:38:33.389Z,37.18
2022-10-19T09:41:36.641Z,35.82
2022-10-19T09:44:40.336Z,35.10
2022-10-19T09:47:48.029Z,35.61
2022-10-19T09:50:59.009Z,34.92
2022-10-19T09:54:02.102Z,35.11
2022-10-19T09:57:06.157Z,35.10
2022-10-19T10:00:18.034Z,33.97
2022-10-19T10:03:36.234Z,36.55
2022-10-19T10:06:41.102Z,36.69
2022-10-19T10:09:45.664Z,36.29
2022-10-19T10:12:50.106Z,33.85
2022-10-19T10:16:06.533Z,37.78
2022-10-19T10:19:13.744Z,37.49
2022-10-19T10:22:28.144Z,38.68
2022-10-19T10:25:34.341Z,38.23
2022-10-19T10:28:48.089Z,37.44
2022-10-19T10:32:03.978Z,36.99
2022-10-19T10:35:16.686Z,40.48
2022-10-19T10:38:25.392Z,37.81
2022-10-19T10:41:29.955Z,37.35
2022-10-19T10:44:36.680Z,36.62
2022-10-19T10:47:39.780Z,34.63
2022-10-19T10:50:45.015Z,34.18
2022-10-19T10:53:47.987Z,33.97
2022-10-19T10:57:17.039Z,32.94
2022-10-19T11:00:22.145Z,34.68
2022-10-19T11:03:30.661Z,33.40
2022-10-19T11:06:40.791Z,35.30
2022-10-19T11:09:58.375Z,35.48
2022-10-19T11:13:19.101Z,33.72
2022-10-19T11:16:31.374Z,32.86
2022-10-19T11:19:44.633Z,31.85
2022-10-19T11:23:02.327Z,35.77
2022-10-19T11:26:36.882Z,33.90
2022-10-19T11:29:57.681Z,32.68
2022-10-19T11:33:25.480Z,33.01
2022-10-19T11:36:54.194Z,35.86
2022-10-19T11:40:21.986Z,37.66
2022-10-19T11:43:40.322Z,39.10
2022-10-19T11:47:03.121Z,40.35
2022-10-19T11:50:32.117Z,41.68
2022-10-19T11:54:04.751Z,41.63
2022-10-19T11:57:18.906Z,42.32
2022-10-19T12:00:38.244Z,43.24
2022-10-19T12:04:06.041Z,43.34
2022-10-19T12:07:15.992Z,43.11
2022-10-19T12:10:46.505Z,40.82
2022-10-19T12:13:57.177Z,37.37
2022-10-19T12:17:08.234Z,35.79
2022-10-19T12:20:25.705Z,36.35
2022-10-19T12:23:34.929Z,36.40
2022-10-19T12:26:40.831Z,36.57
2022-10-19T12:29:49.159Z,35.38
2022-10-19T12:33:16.802Z,35.42
2022-10-19T12:36:45.758Z,34.60
2022-10-19T12:40:01.059Z,32.26
2022-10-19T12:43:24.641Z,32.38
2022-10-19T12:46:48.393Z,35.36
2022-10-19T12:49:56.025Z,33.88
2022-10-19T12:52:58.704Z,33.28
2022-10-19T12:56:21.916Z,32.98
2022-10-19T12:59:31.352Z,33.06
2022-10-19T13:02:37.387Z,32.77
2022-10-19T13:05:40.224Z,34.79
2022-10-19T13:08:58.041Z,34.75
2022-10-19T13:12:19.718Z,34.05
2022-10-19T13:15:35.195Z,34.22
2022-10-19T13:18:59.805Z,35.30
2022-10-19T13:22:02.807Z,36.37
2022-10-19T13:25:17.785Z,38.13
2022-10-19T13:28:36.569Z,39.27
2022-10-19T13:31:39.203Z,40.04
2022-10-19T13:34:42.325Z,40.71
2022-10-19T13:37:45.164Z,41.39
2022-10-19T13:40:47.953Z,42.50
2022-10-19T13:44:09.276Z,43.85
2022-10-19T13:47:24.581Z,44.60
2022-10-19T13:50:38.588Z,44.65
2022-10-19T13:54:16.676Z,46.49
2022-10-19T13:57:48.862Z,46.29
2022-10-19T14:01:04.608Z,45.44
2022-10-19T14:04:30.653Z,46.52
2022-10-19T14:07:43.750Z,45.78
2022-10-19T14:11:01.142Z,45.72
2022-10-19T14:14:14.586Z,46.44
2022-10-19T14:17:34.175Z,47.26
2022-10-19T14:20:39.240Z,47.90
2022-10-19T14:23:42.911Z,48.88
2022-10-19T14:26:46.944Z,49.11
2022-10-19T14:29:52.189Z,48.89
2022-10-19T14:32:59.405Z,49.11
2022-10-19T14:36:07.441Z,48.87
2022-10-19T14:39:24.628Z,49.13
2022-10-19T14:42:45.837Z,49.50
2022-10-19T14:46:06.408Z,49.94
2022-10-19T14:49:11.381Z,50.31
2022-10-19T14:52:25.123Z,50.91
2022-10-19T14:55:35.218Z,51.27
2022-10-19T14:59:00.849Z,51.18
2022-10-19T15:02:30.024Z,51.29
2022-10-19T15:05:36.445Z,51.26
2022-10-19T15:08:48.777Z,51.17
2022-10-19T15:11:53.888Z,51.21
2022-10-19T15:14:57.911Z,51.32
2022-10-19T15:18:00.559Z,51.46
2022-10-19T15:21:18.492Z,51.54
2022-10-19T15:24:28.352Z,52.16
2022-10-19T15:27:36.932Z,52.60
2022-10-19T15:30:39.740Z,52.96
2022-10-19T15:33:49.660Z,52.89
2022-10-19T15:36:58.086Z,53.33
2022-10-19T15:40:10.361Z,53.44
2022-10-19T15:43:31.137Z,53.51
2022-10-19T15:46:46.172Z,53.76
2022-10-19T15:49:55.913Z,53.79
2022-10-19T15:52:59.963Z,53.79
2022-10-19T15:59:16.835Z,54.20
2022-10-19T16:02:20.381Z,54.31
2022-10-19T16:05:25.419Z,54.27
2022-10-19T16:08:28.193Z,54.46
2022-10-19T16:11:33.663Z,55.04
2022-10-19T16:14:36.790Z,55.02
2022-10-19T16:17:40.516Z,55.23
2022-10-19T16:20:43.437Z,55.68
2022-10-19T16:23:47.047Z,55.69
2022-10-19T16:26:49.636Z,56.32
2022-10-19T16:29:52.482Z,56.28
2022-10-19T16:32:55.042Z,56.84
2022-10-19T16:35:57.988Z,56.55
2022-10-19T16:39:01.436Z,57.06
2022-10-19T16:42:05.056Z,56.79
2022-10-19T16:45:08.887Z,56.91
2022-10-19T16:48:14.608Z,56.80
2022-10-19T16:51:43.279Z,56.96
2022-10-19T16:54:46.263Z,56.92
2022-10-19T16:57:52.591Z,57.04
2022-10-19T17:00:59.828Z,56.93
2022-10-19T17:04:02.888Z,56.63
2022-10-19T17:07:06.953Z,56.70
2022-10-19T17:10:12.961Z,56.57
2022-10-19T17:13:17.078Z,56.64
2022-10-19T17:16:21.519Z,56.58
2022-10-19T17:19:25.536Z,57.03
2022-10-19T17:22:28.891Z,56.84
2022-10-19T17:25:32.325Z,57.38
2022-10-19T17:28:36.943Z,57.32
2022-10-19T17:31:41.750Z,57.52
2022-10-19T17:34:44.851Z,57.43
2022-10-19T17:37:48.666Z,57.77
2022-10-19T17:40:51.439Z,58.11
2022-10-19T17:43:54.824Z,58.66
2022-10-19T17:46:57.978Z,58.85
2022-10-19T17:50:04.189Z,59.15
2022-10-19T17:53:08.277Z,59.42
2022-10-19T17:56:17.554Z,59.54
2022-10-19T17:59:30.071Z,60.38
2022-10-19T18:02:38.530Z,60.29
2022-10-19T18:05:42.056Z,60.82
2022-10-19T18:08:48.549Z,60.69
2022-10-19T18:11:53.124Z,60.72
2022-10-19T18:14:56.691Z,60.41
2022-10-19T18:18:00.936Z,60.78
2022-10-19T18:21:09.645Z,61.00
2022-10-19T18:24:19.869Z,61.17
2022-10-19T18:27:24.601Z,61.24
2022-10-19T18:30:28.400Z,61.05
2022-10-19T18:33:35.923Z,60.95
2022-10-19T18:36:39.443Z,60.98
2022-10-19T18:39:42.586Z,60.76
2022-10-19T18:42:46.281Z,60.61
2022-10-19T18:45:54.756Z,60.50
2022-10-19T18:48:58.809Z,60.64
2022-10-19T18:52:02.467Z,60.71
2022-10-19T18:55:06.944Z,60.53
2022-10-19T18:58:11.060Z,60.36
2022-10-19T19:01:23.646Z,60.75
2022-10-19T19:04:26.947Z,60.69
2022-10-19T19:07:32.656Z,60.74
2022-10-19T19:10:35.317Z,61.16
2022-10-19T19:13:39.312Z,61.10
2022-10-19T19:16:43.925Z,61.30
2022-10-19T19:19:47.508Z,61.38
2022-10-19T19:22:50.566Z,61.24
2022-10-19T19:25:57.034Z,61.73
2022-10-19T19:29:05.368Z,62.18
2022-10-19T19:32:15.792Z,63.14
2022-10-19T19:35:19.549Z,63.05
2022-10-19T19:38:25.486Z,62.63
2022-10-19T19:41:34.655Z,62.92
2022-10-19T19:44:38.792Z,63.37
2022-10-19T19:47:42.638Z,63.80
2022-10-19T19:50:47.456Z,63.51
2022-10-19T19:53:51.618Z,64.13
2022-10-19T19:56:55.117Z,64.99
2022-10-19T19:59:58.265Z,65.74
2022-10-19T20:03:01.634Z,65.91
2022-10-19T20:06:05.809Z,66.35
2022-10-19T20:09:09.614Z,66.32
2022-10-19T20:12:13.050Z,66.66
2022-10-19T20:15:18.609Z,67.02
2022-10-19T20:18:23.224Z,67.60
2022-10-19T20:21:28.321Z,67.51
2022-10-19T20:24:33.039Z,67.40
2022-10-19T20:27:38.805Z,67.06
2022-10-19T20:30:44.952Z,67.18
2022-10-19T20:33:48.656Z,67.84
2022-10-19T20:36:52.081Z,67.74
2022-10-19T20:39:55.152Z,67.70
2022-10-19T20:42:58.157Z,67.95
2022-10-19T20:46:14.951Z,68.07
2022-10-19T20:49:18.402Z,68.66
2022-10-19T20:52:21.492Z,69.38
2022-10-19T20:55:24.492Z,70.37
2022-10-19T20:58:27.161Z,69.57
2022-10-19T21:01:33.940Z,70.03
2022-10-19T21:04:36.676Z,69.90
2022-10-19T21:07:40.752Z,70.84
2022-10-19T21:10:43.506Z,71.69
2022-10-19T21:13:47.360Z,71.43
2022-10-19T21:16:50.487Z,73.84
2022-10-19T21:19:57.149Z,75.16
2022-10-19T21:23:00.070Z,75.84
2022-10-19T21:26:03.167Z,74.74
2022-10-19T21:29:09.706Z,74.55
2022-10-19T21:32:12.528Z,76.13
2022-10-19T21:35:15.178Z,76.66
2022-10-19T21:38:18.103Z,76.52
2022-10-19T21:41:25.416Z,76.27
2022-10-19T21:44:30.430Z,75.30
2022-10-19T21:47:33.233Z,75.79
2022-10-19T21:50:36.509Z,75.20
2022-10-19T21:53:39.105Z,75.83
2022-10-19T21:56:42.235Z,77.83
2022-10-19T21:59:44.817Z,77.41
2022-10-19T22:02:48.837Z,76.12
2022-10-19T22:05:52.826Z,75.83
2022-10-19T22:08:55.716Z,76.64
2022-10-19T22:11:58.672Z,77.46
2022-10-19T22:15:01.264Z,76.27
2022-10-19T22:18:04.358Z,76.78
2022-10-19T22:21:10.378Z,77.20
2022-10-19T22:24:15.644Z,77.48
2022-10-19T22:27:18.287Z,76.40
2022-10-19T22:30:21.233Z,77.36
2022-10-19T22:33:25.312Z,76.82
2022-10-19T22:36:29.775Z,77.08
2022-10-19T22:39:32.565Z,77.10
2022-10-19T22:42:35.847Z,77.52
2022-10-19T22:45:38.814Z,76.83
2022-10-19T22:48:43.294Z,77.01
2022-10-19T22:51:46.002Z,77.44
2022-10-19T22:54:50.736Z,77.45
2022-10-19T22:57:53.772Z,78.36
2022-10-19T23:01:06.074Z,77.71
2022-10-19T23:04:08.859Z,77.71
2022-10-19T23:07:13.329Z,77.56
2022-10-19T23:10:16.435Z,77.52
2022-10-19T23:13:19.472Z,78.78
2022-10-19T23:16:22.192Z,78.62
2022-10-19T23:19:26.391Z,78.99
2022-10-19T23:22:29.070Z,79.23
2022-10-19T23:28:42.944Z,78.86
2022-10-19T23:31:46.021Z,79.44
2022-10-19T23:34:49.761Z,81.27
2022-10-19T23:37:52.829Z,82.29
2022-10-19T23:40:55.520Z,82.38
2022-10-19T23:43:59.899Z,80.88
2022-10-19T23:47:02.438Z,80.92
2022-10-19T23:50:05.724Z,80.63
2022-10-19T23:53:08.483Z,80.54
2022-10-19T23:56:17.944Z,80.12
2022-10-19T23:59:20.746Z,79.83
